sensor_id;sensor_type;location;lat;lon;timestamp;pressure;altitude;pressure_sealevel;temperature;humidity
47706;BME280;33471;52.104;1.318;2022-10-13T00:00:47;101360.76;;;15.14;55.50
47706;BME280;33471;52.104;1.318;2022-10-13T00:03:15;101358.43;;;13.88;57.13
47706;BME280;33471;52.104;1.318;2022-10-13T00:05:43;101351.92;;;13.12;60.18
47706;BME280;33471;52.104;1.318;2022-10-13T00:08:11;101352.25;;;15.01;55.10
47706;BME280;33471;52.104;1.318;2022-10-13T00:10:39;101342.56;;;15.57;53.73
47706;BME280;33471;52.104;1.318;2022-10-13T00:13:07;101346.00;;;15.58;53.59
47706;BME280;33471;52.104;1.318;2022-10-13T00:15:37;101372.17;;;15.06;54.05
47706;BME280;33471;52.104;1.318;2022-10-13T00:18:11;101372.43;;;13.87;56.01
47706;BME280;33471;52.104;1.318;2022-10-13T00:20:41;101368.95;;;13.94;56.94
47706;BME280;33471;52.104;1.318;2022-10-13T00:23:09;101366.23;;;14.35;55.70
47706;BME280;33471;52.104;1.318;2022-10-13T00:25:41;101365.24;;;13.80;57.48
47706;BME280;33471;52.104;1.318;2022-10-13T00:28:08;101367.93;;;13.16;59.72
47706;BME280;33471;52.104;1.318;2022-10-13T00:30:35;101378.06;;;14.07;57.70
47706;BME280;33471;52.104;1.318;2022-10-13T00:33:02;101386.02;;;13.98;57.30
47706;BME280;33471;52.104;1.318;2022-10-13T00:35:29;101389.06;;;14.45;56.71
47706;BME280;33471;52.104;1.318;2022-10-13T00:37:57;101387.45;;;14.39;55.49
47706;BME280;33471;52.104;1.318;2022-10-13T00:40:25;101389.47;;;14.45;56.26
47706;BME280;33471;52.104;1.318;2022-10-13T00:42:52;101390.83;;;14.67;57.12
47706;BME280;33471;52.104;1.318;2022-10-13T00:45:22;101389.56;;;14.74;55.40
47706;BME280;33471;52.104;1.318;2022-10-13T00:47:54;101389.23;;;15.25;54.75
47706;BME280;33471;52.104;1.318;2022-10-13T00:50:26;101389.55;;;15.56;54.14
47706;BME280;33471;52.104;1.318;2022-10-13T00:52:57;101393.39;;;13.96;55.05
47706;BME280;33471;52.104;1.318;2022-10-13T00:55:30;101391.24;;;15.38;53.95
47706;BME280;33471;52.104;1.318;2022-10-13T00:57:59;101393.50;;;14.91;53.97
47706;BME280;33471;52.104;1.318;2022-10-13T01:00:28;101395.75;;;15.22;53.21
47706;BME280;33471;52.104;1.318;2022-10-13T01:02:56;101391.47;;;16.00;51.97
47706;BME280;33471;52.104;1.318;2022-10-13T01:05:24;101395.68;;;16.16;52.12
47706;BME280;33471;52.104;1.318;2022-10-13T01:07:52;101402.98;;;15.58;53.32
47706;BME280;33471;52.104;1.318;2022-10-13T01:10:28;101394.79;;;15.84;52.89
47706;BME280;33471;52.104;1.318;2022-10-13T01:13:02;101403.38;;;14.41;55.24
47706;BME280;33471;52.104;1.318;2022-10-13T01:15:39;101399.64;;;15.26;53.99
47706;BME280;33471;52.104;1.318;2022-10-13T01:18:14;101394.88;;;15.55;53.49
47706;BME280;33471;52.104;1.318;2022-10-13T01:20:52;101388.79;;;15.85;53.45
47706;BME280;33471;52.104;1.318;2022-10-13T01:23:39;101395.74;;;14.37;55.35
47706;BME280;33471;52.104;1.318;2022-10-13T01:26:25;101401.87;;;14.26;56.05
47706;BME280;33471;52.104;1.318;2022-10-13T01:29:12;101405.20;;;12.99;57.92
47706;BME280;33471;52.104;1.318;2022-10-13T01:31:48;101399.78;;;14.45;56.81
47706;BME280;33471;52.104;1.318;2022-10-13T01:34:20;101397.17;;;14.09;57.54
47706;BME280;33471;52.104;1.318;2022-10-13T01:36:59;101393.38;;;13.19;59.65
47706;BME280;33471;52.104;1.318;2022-10-13T01:39:34;101395.93;;;13.48;59.08
47706;BME280;33471;52.104;1.318;2022-10-13T01:42:07;101393.58;;;12.84;60.92
47706;BME280;33471;52.104;1.318;2022-10-13T01:44:42;101394.57;;;12.66;63.52
47706;BME280;33471;52.104;1.318;2022-10-13T01:47:15;101385.00;;;12.63;63.82
47706;BME280;33471;52.104;1.318;2022-10-13T01:49:44;101382.81;;;11.80;66.39
47706;BME280;33471;52.104;1.318;2022-10-13T01:52:15;101380.08;;;11.97;66.42
47706;BME280;33471;52.104;1.318;2022-10-13T01:54:47;101376.28;;;11.60;67.27
47706;BME280;33471;52.104;1.318;2022-10-13T01:57:32;101370.55;;;11.94;65.57
47706;BME280;33471;52.104;1.318;2022-10-13T02:00:07;101360.84;;;12.53;62.40
47706;BME280;33471;52.104;1.318;2022-10-13T02:02:42;101357.57;;;12.43;63.35
47706;BME280;33471;52.104;1.318;2022-10-13T02:05:18;101353.78;;;12.24;64.70
47706;BME280;33471;52.104;1.318;2022-10-13T02:07:54;101350.91;;;12.18;66.28
47706;BME280;33471;52.104;1.318;2022-10-13T02:10:27;101347.62;;;11.78;66.56
47706;BME280;33471;52.104;1.318;2022-10-13T02:13:01;101347.37;;;10.92;66.64
47706;BME280;33471;52.104;1.318;2022-10-13T02:15:31;101347.09;;;11.91;66.91
47706;BME280;33471;52.104;1.318;2022-10-13T02:18:01;101343.15;;;10.70;69.67
47706;BME280;33471;52.104;1.318;2022-10-13T02:20:31;101345.90;;;11.12;69.45
47706;BME280;33471;52.104;1.318;2022-10-13T02:23:08;101343.14;;;11.26;67.96
47706;BME280;33471;52.104;1.318;2022-10-13T02:25:37;101344.62;;;12.04;67.30
47706;BME280;33471;52.104;1.318;2022-10-13T02:28:06;101344.47;;;11.50;69.13
47706;BME280;33471;52.104;1.318;2022-10-13T02:30:34;101347.11;;;12.18;66.37
47706;BME280;33471;52.104;1.318;2022-10-13T02:33:02;101340.02;;;11.17;69.62
47706;BME280;33471;52.104;1.318;2022-10-13T02:35:29;101338.74;;;11.60;68.40
47706;BME280;33471;52.104;1.318;2022-10-13T02:37:57;101336.29;;;11.17;67.33
47706;BME280;33471;52.104;1.318;2022-10-13T02:40:24;101333.42;;;12.90;64.66
47706;BME280;33471;52.104;1.318;2022-10-13T02:42:52;101328.74;;;12.50;65.95
47706;BME280;33471;52.104;1.318;2022-10-13T02:45:20;101321.28;;;12.07;67.72
47706;BME280;33471;52.104;1.318;2022-10-13T02:47:47;101311.73;;;13.20;65.33
47706;BME280;33471;52.104;1.318;2022-10-13T02:50:14;101315.03;;;13.92;62.35
47706;BME280;33471;52.104;1.318;2022-10-13T02:52:41;101315.83;;;13.62;61.53
47706;BME280;33471;52.104;1.318;2022-10-13T02:55:08;101314.24;;;14.46;59.53
47706;BME280;33471;52.104;1.318;2022-10-13T02:57:36;101319.92;;;13.82;60.80
47706;BME280;33471;52.104;1.318;2022-10-13T03:00:05;101322.88;;;12.79;62.35
47706;BME280;33471;52.104;1.318;2022-10-13T03:02:32;101325.42;;;13.69;61.20
47706;BME280;33471;52.104;1.318;2022-10-13T03:05:00;101321.97;;;14.14;59.17
47706;BME280;33471;52.104;1.318;2022-10-13T03:07:27;101322.62;;;14.28;59.83
47706;BME280;33471;52.104;1.318;2022-10-13T03:09:54;101319.50;;;14.62;57.74
47706;BME280;33471;52.104;1.318;2022-10-13T03:12:27;101320.33;;;14.44;58.61
47706;BME280;33471;52.104;1.318;2022-10-13T03:14:54;101315.15;;;14.36;58.27
47706;BME280;33471;52.104;1.318;2022-10-13T03:17:21;101316.56;;;13.59;60.66
47706;BME280;33471;52.104;1.318;2022-10-13T03:19:48;101312.52;;;12.56;63.82
47706;BME280;33471;52.104;1.318;2022-10-13T03:22:15;101311.72;;;13.63;60.65
47706;BME280;33471;52.104;1.318;2022-10-13T03:24:42;101315.00;;;13.90;59.92
47706;BME280;33471;52.104;1.318;2022-10-13T03:27:09;101314.45;;;13.34;61.57
47706;BME280;33471;52.104;1.318;2022-10-13T03:29:37;101310.84;;;14.77;58.20
47706;BME280;33471;52.104;1.318;2022-10-13T03:32:04;101311.99;;;13.71;59.71
47706;BME280;33471;52.104;1.318;2022-10-13T03:34:32;101302.62;;;14.82;57.47
47706;BME280;33471;52.104;1.318;2022-10-13T03:36:59;101304.38;;;15.25;55.45
47706;BME280;33471;52.104;1.318;2022-10-13T03:39:27;101299.34;;;15.85;54.61
47706;BME280;33471;52.104;1.318;2022-10-13T03:41:54;101296.80;;;15.73;54.29
47706;BME280;33471;52.104;1.318;2022-10-13T03:44:22;101293.67;;;16.18;53.93
47706;BME280;33471;52.104;1.318;2022-10-13T03:46:49;101294.04;;;16.47;53.63
47706;BME280;33471;52.104;1.318;2022-10-13T03:49:16;101292.53;;;15.77;55.02
47706;BME280;33471;52.104;1.318;2022-10-13T03:51:43;101297.64;;;15.22;56.60
47706;BME280;33471;52.104;1.318;2022-10-13T03:54:11;101300.40;;;14.66;57.49
47706;BME280;33471;52.104;1.318;2022-10-13T03:56:38;101308.26;;;15.65;55.77
47706;BME280;33471;52.104;1.318;2022-10-13T03:59:06;101314.01;;;14.78;56.53
47706;BME280;33471;52.104;1.318;2022-10-13T04:01:33;101316.93;;;15.53;55.46
47706;BME280;33471;52.104;1.318;2022-10-13T04:04:00;101319.00;;;15.18;54.75
47706;BME280;33471;52.104;1.318;2022-10-13T04:06:28;101317.81;;;15.57;55.01
47706;BME280;33471;52.104;1.318;2022-10-13T04:08:56;101320.87;;;15.09;55.71
47706;BME280;33471;52.104;1.318;2022-10-13T04:11:24;101325.87;;;15.02;56.82
47706;BME280;33471;52.104;1.318;2022-10-13T04:13:52;101330.36;;;14.27;58.31
47706;BME280;33471;52.104;1.318;2022-10-13T04:16:23;101328.18;;;14.48;58.25
47706;BME280;33471;52.104;1.318;2022-10-13T04:18:54;101322.20;;;15.04;57.68
47706;BME280;33471;52.104;1.318;2022-10-13T04:21:22;101321.45;;;13.64;60.17
47706;BME280;33471;52.104;1.318;2022-10-13T04:23:58;101322.96;;;14.08;59.83
47706;BME280;33471;52.104;1.318;2022-10-13T04:26:28;101322.76;;;13.54;60.33
47706;BME280;33471;52.104;1.318;2022-10-13T04:28:56;101324.64;;;13.47;59.85
47706;BME280;33471;52.104;1.318;2022-10-13T04:31:23;101321.81;;;13.72;60.22
47706;BME280;33471;52.104;1.318;2022-10-13T04:33:51;101314.33;;;14.80;58.57
47706;BME280;33471;52.104;1.318;2022-10-13T04:36:19;101311.93;;;13.84;59.51
47706;BME280;33471;52.104;1.318;2022-10-13T04:38:47;101301.70;;;15.42;56.48
47706;BME280;33471;52.104;1.318;2022-10-13T04:41:16;101290.92;;;14.39;56.97
47706;BME280;33471;52.104;1.318;2022-10-13T04:43:46;101291.62;;;15.80;55.58
47706;BME280;33471;52.104;1.318;2022-10-13T04:46:15;101286.45;;;14.83;56.88
47706;BME280;33471;52.104;1.318;2022-10-13T04:48:43;101285.33;;;14.79;56.93
47706;BME280;33471;52.104;1.318;2022-10-13T04:51:13;101285.38;;;15.80;55.04
47706;BME280;33471;52.104;1.318;2022-10-13T04:53:40;101285.23;;;15.77;54.72
47706;BME280;33471;52.104;1.318;2022-10-13T04:56:09;101286.80;;;16.20;54.10
47706;BME280;33471;52.104;1.318;2022-10-13T04:58:38;101288.26;;;15.83;54.60
47706;BME280;33471;52.104;1.318;2022-10-13T05:01:07;101283.26;;;15.68;54.12
47706;BME280;33471;52.104;1.318;2022-10-13T05:03:37;101283.36;;;16.14;53.67
47706;BME280;33471;52.104;1.318;2022-10-13T05:06:05;101281.61;;;14.72;55.64
47706;BME280;33471;52.104;1.318;2022-10-13T05:08:33;101279.82;;;16.00;54.27
47706;BME280;33471;52.104;1.318;2022-10-13T05:11:01;101279.19;;;15.35;53.65
47706;BME280;33471;52.104;1.318;2022-10-13T05:13:29;101281.08;;;15.22;55.76
47706;BME280;33471;52.104;1.318;2022-10-13T05:15:56;101283.23;;;15.38;54.10
47706;BME280;33471;52.104;1.318;2022-10-13T05:18:24;101285.82;;;15.45;54.66
47706;BME280;33471;52.104;1.318;2022-10-13T05:20:52;101283.16;;;15.41;54.94
47706;BME280;33471;52.104;1.318;2022-10-13T05:23:19;101284.63;;;15.49;54.13
47706;BME280;33471;52.104;1.318;2022-10-13T05:25:46;101281.84;;;16.47;53.24
47706;BME280;33471;52.104;1.318;2022-10-13T05:28:13;101280.01;;;16.10;53.52
47706;BME280;33471;52.104;1.318;2022-10-13T05:30:41;101275.89;;;16.50;53.17
47706;BME280;33471;52.104;1.318;2022-10-13T05:33:08;101276.95;;;16.04;53.54
47706;BME280;33471;52.104;1.318;2022-10-13T05:35:40;101271.70;;;16.45;52.81
47706;BME280;33471;52.104;1.318;2022-10-13T05:38:07;101268.14;;;16.98;51.71
47706;BME280;33471;52.104;1.318;2022-10-13T05:40:34;101267.28;;;17.02;52.18
47706;BME280;33471;52.104;1.318;2022-10-13T05:43:02;101272.73;;;16.20;52.42
47706;BME280;33471;52.104;1.318;2022-10-13T05:45:31;101274.81;;;17.08;51.92
47706;BME280;33471;52.104;1.318;2022-10-13T05:47:59;101272.45;;;16.15;52.34
47706;BME280;33471;52.104;1.318;2022-10-13T05:50:27;101273.39;;;16.68;52.29
47706;BME280;33471;52.104;1.318;2022-10-13T05:52:58;101272.43;;;16.21;52.23
47706;BME280;33471;52.104;1.318;2022-10-13T05:55:27;101263.32;;;15.62;52.46
47706;BME280;33471;52.104;1.318;2022-10-13T05:57:54;101264.97;;;16.18;51.54
47706;BME280;33471;52.104;1.318;2022-10-13T06:00:22;101263.16;;;15.99;50.58
47706;BME280;33471;52.104;1.318;2022-10-13T06:02:52;101263.36;;;16.07;49.13
47706;BME280;33471;52.104;1.318;2022-10-13T06:05:32;101266.03;;;16.84;48.63
47706;BME280;33471;52.104;1.318;2022-10-13T06:08:06;101268.71;;;16.63;48.25
47706;BME280;33471;52.104;1.318;2022-10-13T06:10:33;101267.15;;;17.39;47.77
47706;BME280;33471;52.104;1.318;2022-10-13T06:13:01;101269.95;;;16.92;47.61
47706;BME280;33471;52.104;1.318;2022-10-13T06:15:28;101268.77;;;17.35;47.29
47706;BME280;33471;52.104;1.318;2022-10-13T06:17:56;101271.63;;;18.06;48.32
47706;BME280;33471;52.104;1.318;2022-10-13T06:20:24;101273.27;;;17.85;49.29
47706;BME280;33471;52.104;1.318;2022-10-13T06:22:53;101270.68;;;17.43;50.13
47706;BME280;33471;52.104;1.318;2022-10-13T06:25:21;101268.35;;;17.16;50.74
47706;BME280;33471;52.104;1.318;2022-10-13T06:27:49;101269.13;;;17.26;51.05
47706;BME280;33471;52.104;1.318;2022-10-13T06:30:17;101272.64;;;16.92;51.14
47706;BME280;33471;52.104;1.318;2022-10-13T06:32:44;101270.40;;;16.78;51.41
47706;BME280;33471;52.104;1.318;2022-10-13T06:35:11;101270.55;;;16.81;51.31
47706;BME280;33471;52.104;1.318;2022-10-13T06:37:38;101269.51;;;16.82;51.23
47706;BME280;33471;52.104;1.318;2022-10-13T06:40:07;101270.98;;;17.21;51.38
47706;BME280;33471;52.104;1.318;2022-10-13T06:42:34;101276.23;;;16.70;51.31
47706;BME280;33471;52.104;1.318;2022-10-13T06:45:01;101276.42;;;17.02;51.53
47706;BME280;33471;52.104;1.318;2022-10-13T06:47:29;101278.30;;;16.52;51.56
47706;BME280;33471;52.104;1.318;2022-10-13T06:49:56;101277.36;;;16.52;51.48
47706;BME280;33471;52.104;1.318;2022-10-13T06:52:23;101273.94;;;16.94;51.61
47706;BME280;33471;52.104;1.318;2022-10-13T06:54:50;101267.82;;;17.08;51.31
47706;BME280;33471;52.104;1.318;2022-10-13T06:57:17;101266.69;;;16.34;51.59
47706;BME280;33471;52.104;1.318;2022-10-13T06:59:44;101266.57;;;16.93;51.54
47706;BME280;33471;52.104;1.318;2022-10-13T07:02:11;101270.65;;;16.93;51.64
47706;BME280;33471;52.104;1.318;2022-10-13T07:04:38;101272.71;;;16.46;51.76
47706;BME280;33471;52.104;1.318;2022-10-13T07:07:05;101272.06;;;16.77;51.80
47706;BME280;33471;52.104;1.318;2022-10-13T07:09:32;101272.16;;;16.44;51.96
47706;BME280;33471;52.104;1.318;2022-10-13T07:12:00;101272.98;;;17.05;51.83
47706;BME280;33471;52.104;1.318;2022-10-13T07:14:27;101275.72;;;16.89;52.10
47706;BME280;33471;52.104;1.318;2022-10-13T07:16:54;101275.88;;;16.75;52.11
47706;BME280;33471;52.104;1.318;2022-10-13T07:19:21;101274.88;;;16.87;52.01
47706;BME280;33471;52.104;1.318;2022-10-13T07:21:49;101276.94;;;16.78;51.83
47706;BME280;33471;52.104;1.318;2022-10-13T07:24:16;101275.94;;;16.76;51.68
47706;BME280;33471;52.104;1.318;2022-10-13T07:26:43;101271.96;;;16.64;51.91
47706;BME280;33471;52.104;1.318;2022-10-13T07:29:10;101269.48;;;16.72;51.89
47706;BME280;33471;52.104;1.318;2022-10-13T07:31:38;101270.10;;;16.64;51.88
47706;BME280;33471;52.104;1.318;2022-10-13T07:34:06;101270.91;;;16.88;51.47
47706;BME280;33471;52.104;1.318;2022-10-13T07:36:33;101270.66;;;16.54;51.74
47706;BME280;33471;52.104;1.318;2022-10-13T07:39:01;101272.61;;;17.08;51.77
47706;BME280;33471;52.104;1.318;2022-10-13T07:41:29;101274.83;;;16.88;51.81
47706;BME280;33471;52.104;1.318;2022-10-13T07:43:56;101276.51;;;16.96;51.73
47706;BME280;33471;52.104;1.318;2022-10-13T07:46:25;101276.10;;;16.90;51.90
47706;BME280;33471;52.104;1.318;2022-10-13T07:48:52;101270.47;;;17.07;51.84
47706;BME280;33471;52.104;1.318;2022-10-13T07:51:21;101268.24;;;16.44;52.45
47706;BME280;33471;52.104;1.318;2022-10-13T07:53:48;101267.38;;;16.72;51.97
47706;BME280;33471;52.104;1.318;2022-10-13T07:56:16;101272.27;;;16.16;53.19
47706;BME280;33471;52.104;1.318;2022-10-13T07:58:45;101273.66;;;16.28;53.10
47706;BME280;33471;52.104;1.318;2022-10-13T08:01:14;101277.51;;;15.55;54.29
47706;BME280;33471;52.104;1.318;2022-10-13T08:03:42;101275.22;;;15.22;54.91
47706;BME280;33471;52.104;1.318;2022-10-13T08:06:15;101272.65;;;15.89;54.39
47706;BME280;33471;52.104;1.318;2022-10-13T08:08:42;101275.39;;;15.77;54.31
47706;BME280;33471;52.104;1.318;2022-10-13T08:11:12;101282.49;;;15.23;56.51
47706;BME280;33471;52.104;1.318;2022-10-13T08:13:39;101283.96;;;14.65;57.55
47706;BME280;33471;52.104;1.318;2022-10-13T08:16:08;101286.90;;;13.95;58.99
47706;BME280;33471;52.104;1.318;2022-10-13T08:18:36;101287.62;;;13.64;59.07
47706;BME280;33471;52.104;1.318;2022-10-13T08:21:03;101287.31;;;13.72;60.44
47706;BME280;33471;52.104;1.318;2022-10-13T08:23:31;101281.08;;;14.86;57.02
47706;BME280;33471;52.104;1.318;2022-10-13T08:25:58;101280.78;;;16.01;55.07
47706;BME280;33471;52.104;1.318;2022-10-13T08:28:27;101278.99;;;16.39;54.30
47706;BME280;33471;52.104;1.318;2022-10-13T08:30:55;101272.77;;;16.19;53.95
47706;BME280;33471;52.104;1.318;2022-10-13T08:33:23;101272.47;;;16.16;54.11
47706;BME280;33471;52.104;1.318;2022-10-13T08:35:50;101274.65;;;15.92;53.91
47706;BME280;33471;52.104;1.318;2022-10-13T08:38:18;101275.47;;;16.77;53.05
47706;BME280;33471;52.104;1.318;2022-10-13T08:40:47;101281.14;;;17.35;52.20
47706;BME280;33471;52.104;1.318;2022-10-13T08:43:18;101277.69;;;16.25;53.75
47706;BME280;33471;52.104;1.318;2022-10-13T08:45:48;101272.00;;;16.29;52.82
47706;BME280;33471;52.104;1.318;2022-10-13T08:48:17;101271.15;;;16.62;52.05
47706;BME280;33471;52.104;1.318;2022-10-13T08:50:49;101273.56;;;16.78;51.91
47706;BME280;33471;52.104;1.318;2022-10-13T08:53:21;101276.64;;;16.65;52.42
47706;BME280;33471;52.104;1.318;2022-10-13T08:55:54;101284.41;;;17.06;51.39
47706;BME280;33471;52.104;1.318;2022-10-13T08:58:26;101286.47;;;16.87;51.95
47706;BME280;33471;52.104;1.318;2022-10-13T09:01:05;101281.89;;;17.30;50.67
47706;BME280;33471;52.104;1.318;2022-10-13T09:03:46;101282.07;;;16.28;51.53
47706;BME280;33471;52.104;1.318;2022-10-13T09:06:22;101281.56;;;17.58;50.34
47706;BME280;33471;52.104;1.318;2022-10-13T09:08:52;101286.26;;;17.01;50.81
47706;BME280;33471;52.104;1.318;2022-10-13T09:11:20;101282.27;;;17.73;50.11
47706;BME280;33471;52.104;1.318;2022-10-13T09:13:48;101281.82;;;17.17;50.32
47706;BME280;33471;52.104;1.318;2022-10-13T09:16:26;101277.08;;;17.11;50.70
47706;BME280;33471;52.104;1.318;2022-10-13T09:18:53;101276.07;;;17.68;50.09
47706;BME280;33471;52.104;1.318;2022-10-13T09:21:23;101277.19;;;17.13;50.81
47706;BME280;33471;52.104;1.318;2022-10-13T09:23:52;101277.82;;;17.03;50.61
47706;BME280;33471;52.104;1.318;2022-10-13T09:26:23;101285.77;;;17.05;51.14
47706;BME280;33471;52.104;1.318;2022-10-13T09:28:51;101282.88;;;17.69;50.01
47706;BME280;33471;52.104;1.318;2022-10-13T09:31:23;101278.42;;;18.08;49.81
47706;BME280;33471;52.104;1.318;2022-10-13T09:34:01;101275.58;;;17.00;50.73
47706;BME280;33471;52.104;1.318;2022-10-13T09:36:29;101276.05;;;17.73;49.87
47706;BME280;33471;52.104;1.318;2022-10-13T09:39:13;101273.82;;;17.72;49.57
47706;BME280;33471;52.104;1.318;2022-10-13T09:41:42;101272.61;;;18.08;48.22
47706;BME280;33471;52.104;1.318;2022-10-13T09:44:13;101272.35;;;18.54;47.83
47706;BME280;33471;52.104;1.318;2022-10-13T09:46:49;101271.60;;;18.35;47.94
47706;BME280;33471;52.104;1.318;2022-10-13T09:49:28;101273.56;;;18.73;48.28
47706;BME280;33471;52.104;1.318;2022-10-13T09:52:00;101269.05;;;18.29;48.94
47706;BME280;33471;52.104;1.318;2022-10-13T09:54:43;101268.47;;;17.90;48.16
47706;BME280;33471;52.104;1.318;2022-10-13T09:57:16;101270.12;;;18.42;47.05
47706;BME280;33471;52.104;1.318;2022-10-13T09:59:49;101268.53;;;18.38;47.08
47706;BME280;33471;52.104;1.318;2022-10-13T10:02:25;101271.56;;;19.40;46.10
47706;BME280;33471;52.104;1.318;2022-10-13T10:04:58;101270.59;;;19.29;46.82
47706;BME280;33471;52.104;1.318;2022-10-13T10:07:30;101270.44;;;19.21;45.72
47706;BME280;33471;52.104;1.318;2022-10-13T10:10:01;101270.16;;;18.97;45.38
47706;BME280;33471;52.104;1.318;2022-10-13T10:12:31;101268.25;;;18.71;45.53
47706;BME280;33471;52.104;1.318;2022-10-13T10:15:00;101263.20;;;19.58;44.85
47706;BME280;33471;52.104;1.318;2022-10-13T10:17:34;101263.70;;;19.80;45.65
47706;BME280;33471;52.104;1.318;2022-10-13T10:20:29;101264.08;;;19.55;46.38
47706;BME280;33471;52.104;1.318;2022-10-13T10:23:05;101268.00;;;19.74;46.68
47706;BME280;33471;52.104;1.318;2022-10-13T10:25:38;101268.43;;;18.67;46.95
47706;BME280;33471;52.104;1.318;2022-10-13T10:28:20;101264.57;;;19.56;46.39
47706;BME280;33471;52.104;1.318;2022-10-13T10:30:57;101266.50;;;19.48;46.91
47706;BME280;33471;52.104;1.318;2022-10-13T10:33:34;101269.64;;;19.48;47.13
47706;BME280;33471;52.104;1.318;2022-10-13T10:36:12;101269.64;;;19.39;46.94
47706;BME280;33471;52.104;1.318;2022-10-13T10:38:43;101266.07;;;18.86;46.05
47706;BME280;33471;52.104;1.318;2022-10-13T10:41:33;101260.30;;;19.43;45.82
47706;BME280;33471;52.104;1.318;2022-10-13T10:44:07;101262.08;;;19.66;45.32
47706;BME280;33471;52.104;1.318;2022-10-13T10:46:41;101263.59;;;19.21;46.19
47706;BME280;33471;52.104;1.318;2022-10-13T10:49:14;101260.63;;;19.47;44.90
47706;BME280;33471;52.104;1.318;2022-10-13T10:51:43;101263.02;;;19.45;45.15
47706;BME280;33471;52.104;1.318;2022-10-13T10:54:22;101270.90;;;20.20;45.58
47706;BME280;33471;52.104;1.318;2022-10-13T10:56:57;101276.71;;;19.56;45.95
47706;BME280;33471;52.104;1.318;2022-10-13T10:59:41;101276.07;;;19.68;45.20
47706;BME280;33471;52.104;1.318;2022-10-13T11:02:18;101277.68;;;19.72;44.50
47706;BME280;33471;52.104;1.318;2022-10-13T11:04:52;101278.86;;;20.00;43.58
47706;BME280;33471;52.104;1.318;2022-10-13T11:07:55;101279.47;;;19.82;43.32
47706;BME280;33471;52.104;1.318;2022-10-13T11:10:23;101282.84;;;20.11;43.56
47706;BME280;33471;52.104;1.318;2022-10-13T11:13:23;101288.30;;;20.41;44.53
47706;BME280;33471;52.104;1.318;2022-10-13T11:15:50;101289.88;;;19.50;44.80
47706;BME280;33471;52.104;1.318;2022-10-13T11:19:00;101288.71;;;20.63;44.05
47706;BME280;33471;52.104;1.318;2022-10-13T11:22:10;101297.13;;;18.91;44.81
47706;BME280;33471;52.104;1.318;2022-10-13T11:24:52;101299.89;;;18.40;45.18
47706;BME280;33471;52.104;1.318;2022-10-13T11:28:47;101286.75;;;18.51;44.07
47706;BME280;33471;52.104;1.318;2022-10-13T11:31:27;101283.47;;;18.44;42.01
47706;BME280;33471;52.104;1.318;2022-10-13T11:33:56;101276.99;;;20.75;40.92
47706;BME280;33471;52.104;1.318;2022-10-13T11:36:30;101279.92;;;20.84;42.71
47706;BME280;33471;52.104;1.318;2022-10-13T11:39:07;101279.26;;;18.36;44.87
47706;BME280;33471;52.104;1.318;2022-10-13T11:41:50;101279.58;;;20.22;43.17
47706;BME280;33471;52.104;1.318;2022-10-13T11:44:26;101276.55;;;20.42;43.27
47706;BME280;33471;52.104;1.318;2022-10-13T11:47:04;101274.60;;;20.22;44.03
47706;BME280;33471;52.104;1.318;2022-10-13T11:49:45;101273.10;;;20.13;44.04
47706;BME280;33471;52.104;1.318;2022-10-13T11:53:05;101267.22;;;19.79;44.76
47706;BME280;33471;52.104;1.318;2022-10-13T11:55:41;101266.83;;;20.10;42.61
47706;BME280;33471;52.104;1.318;2022-10-13T11:58:14;101263.26;;;19.16;44.97
47706;BME280;33471;52.104;1.318;2022-10-13T12:00:52;101262.79;;;19.25;44.17
47706;BME280;33471;52.104;1.318;2022-10-13T12:03:24;101263.36;;;19.53;43.23
47706;BME280;33471;52.104;1.318;2022-10-13T12:05:51;101262.44;;;19.12;44.20
47706;BME280;33471;52.104;1.318;2022-10-13T12:08:25;101268.71;;;18.36;45.31
47706;BME280;33471;52.104;1.318;2022-10-13T12:10:55;101265.86;;;17.60;45.85
47706;BME280;33471;52.104;1.318;2022-10-13T12:13:25;101259.50;;;18.93;44.12
47706;BME280;33471;52.104;1.318;2022-10-13T12:16:00;101257.87;;;17.77;45.18
47706;BME280;33471;52.104;1.318;2022-10-13T12:18:29;101254.46;;;17.69;47.10
47706;BME280;33471;52.104;1.318;2022-10-13T12:20:58;101240.18;;;19.17;44.80
47706;BME280;33471;52.104;1.318;2022-10-13T12:23:31;101234.35;;;19.21;43.68
47706;BME280;33471;52.104;1.318;2022-10-13T12:25:58;101224.68;;;18.83;44.59
47706;BME280;33471;52.104;1.318;2022-10-13T12:28:28;101219.27;;;18.95;43.42
47706;BME280;33471;52.104;1.318;2022-10-13T12:30:57;101227.37;;;18.01;45.44
47706;BME280;33471;52.104;1.318;2022-10-13T12:33:29;101223.12;;;18.94;42.60
47706;BME280;33471;52.104;1.318;2022-10-13T12:36:12;101225.42;;;19.32;41.65
47706;BME280;33471;52.104;1.318;2022-10-13T12:38:44;101227.06;;;20.07;42.15
47706;BME280;33471;52.104;1.318;2022-10-13T12:41:16;101226.32;;;19.55;42.13
47706;BME280;33471;52.104;1.318;2022-10-13T12:43:45;101226.28;;;19.55;43.09
47706;BME280;33471;52.104;1.318;2022-10-13T12:46:34;101222.30;;;20.09;43.96
47706;BME280;33471;52.104;1.318;2022-10-13T12:49:05;101221.44;;;19.62;43.81
47706;BME280;33471;52.104;1.318;2022-10-13T12:51:35;101219.42;;;19.83;43.04
47706;BME280;33471;52.104;1.318;2022-10-13T12:54:06;101221.31;;;19.62;42.64
47706;BME280;33471;52.104;1.318;2022-10-13T12:56:34;101224.31;;;20.22;42.07
47706;BME280;33471;52.104;1.318;2022-10-13T12:59:03;101226.50;;;19.61;42.03
47706;BME280;33471;52.104;1.318;2022-10-13T13:01:32;101231.16;;;19.27;42.60
47706;BME280;33471;52.104;1.318;2022-10-13T13:04:01;101229.39;;;19.87;41.57
47706;BME280;33471;52.104;1.318;2022-10-13T13:06:52;101217.38;;;19.31;41.30
47706;BME280;33471;52.104;1.318;2022-10-13T13:09:23;101209.60;;;20.20;40.59
47706;BME280;33471;52.104;1.318;2022-10-13T13:12:04;101202.35;;;20.49;40.82